sensor_id;sensor_type;location;lat;lon;timestamp;pressure;altitude;pressure_sealevel;temperature;humidity
77431;BME280;66498;48.564;19.272;2023-03-05T00:01:30;97099.44;;;1.44;64.13
77431;BME280;66498;48.564;19.272;2023-03-05T00:04:00;97096.69;;;1.45;64.02
77431;BME280;66498;48.564;19.272;2023-03-05T00:06:27;97093.41;;;1.51;63.99
77431;BME280;66498;48.564;19.272;2023-03-05T00:08:54;97100.72;;;1.48;64.41
77431;BME280;66498;48.564;19.272;2023-03-05T00:11:21;97098.13;;;1.48;64.15
77431;BME280;66498;48.564;19.272;2023-03-05T00:13:49;97099.56;;;1.50;64.65
77431;BME280;66498;48.564;19.272;2023-03-05T00:16:15;97098.13;;;1.48;64.55
77431;BME280;66498;48.564;19.272;2023-03-05T00:18:41;97095.53;;;1.48;64.12
77431;BME280;66498;48.564;19.272;2023-03-05T00:23:49;97095.66;;;1.54;64.32
77431;BME280;66498;48.564;19.272;2023-03-05T00:26:20;97103.56;;;1.53;64.53
77431;BME280;66498;48.564;19.272;2023-03-05T00:28:45;97094.19;;;1.52;64.80
77431;BME280;66498;48.564;19.272;2023-03-05T00:31:21;97091.13;;;1.56;64.22
77431;BME280;66498;48.564;19.272;2023-03-05T00:33:52;97090.81;;;1.51;64.48
77431;BME280;66498;48.564;19.272;2023-03-05T00:36:18;97087.19;;;1.60;63.80
77431;BME280;66498;48.564;19.272;2023-03-05T00:38:44;97092.72;;;1.57;64.17
77431;BME280;66498;48.564;19.272;2023-03-05T00:41:09;97091.72;;;1.58;64.07
77431;BME280;66498;48.564;19.272;2023-03-05T00:43:35;97085.75;;;1.58;63.94
77431;BME280;66498;48.564;19.272;2023-03-05T00:46:01;97081.72;;;1.55;64.98
77431;BME280;66498;48.564;19.272;2023-03-05T00:48:26;97079.47;;;1.52;64.65
77431;BME280;66498;48.564;19.272;2023-03-05T00:50:52;97081.47;;;1.65;64.17
77431;BME280;66498;48.564;19.272;2023-03-05T00:53:18;97079.53;;;1.67;63.80
77431;BME280;66498;48.564;19.272;2023-03-05T00:55:43;97074.06;;;1.62;64.01
77431;BME280;66498;48.564;19.272;2023-03-05T00:58:09;97077.09;;;1.65;64.39
77431;BME280;66498;48.564;19.272;2023-03-05T01:00:35;97075.94;;;1.68;64.29
77431;BME280;66498;48.564;19.272;2023-03-05T01:03:00;97076.50;;;1.63;64.18
77431;BME280;66498;48.564;19.272;2023-03-05T01:05:26;97067.41;;;1.68;63.79
77431;BME280;66498;48.564;19.272;2023-03-05T01:07:52;97070.97;;;1.67;63.87
77431;BME280;66498;48.564;19.272;2023-03-05T01:10:20;97074.16;;;1.69;64.32
77431;BME280;66498;48.564;19.272;2023-03-05T01:12:46;97069.53;;;1.64;64.77
77431;BME280;66498;48.564;19.272;2023-03-05T01:15:11;97070.78;;;1.68;64.42
77431;BME280;66498;48.564;19.272;2023-03-05T01:17:37;97067.28;;;1.61;64.84
77431;BME280;66498;48.564;19.272;2023-03-05T01:20:03;97068.63;;;1.72;64.18
77431;BME280;66498;48.564;19.272;2023-03-05T01:22:29;97068.38;;;1.67;64.71
77431;BME280;66498;48.564;19.272;2023-03-05T01:24:54;97056.34;;;1.74;64.48
77431;BME280;66498;48.564;19.272;2023-03-05T01:27:20;97062.56;;;1.64;64.93
77431;BME280;66498;48.564;19.272;2023-03-05T01:29:45;97055.16;;;1.61;65.43
77431;BME280;66498;48.564;19.272;2023-03-05T01:32:12;97066.25;;;1.70;64.69
77431;BME280;66498;48.564;19.272;2023-03-05T01:34:52;97052.47;;;1.70;64.43
77431;BME280;66498;48.564;19.272;2023-03-05T01:37:20;97054.72;;;1.73;64.98
77431;BME280;66498;48.564;19.272;2023-03-05T01:39:47;97055.16;;;1.76;64.56
77431;BME280;66498;48.564;19.272;2023-03-05T01:42:12;97051.78;;;1.76;64.48
77431;BME280;66498;48.564;19.272;2023-03-05T01:45:19;97056.00;;;1.77;64.75
77431;BME280;66498;48.564;19.272;2023-03-05T01:47:45;97049.72;;;1.71;65.25
77431;BME280;66498;48.564;19.272;2023-03-05T01:50:15;97059.28;;;1.71;65.61
77431;BME280;66498;48.564;19.272;2023-03-05T01:52:45;97061.06;;;1.70;65.68
77431;BME280;66498;48.564;19.272;2023-03-05T01:55:15;97058.63;;;1.69;65.88
77431;BME280;66498;48.564;19.272;2023-03-05T01:57:48;97056.50;;;1.72;65.88
77431;BME280;66498;48.564;19.272;2023-03-05T02:00:19;97056.59;;;1.64;66.26
77431;BME280;66498;48.564;19.272;2023-03-05T02:02:48;97062.56;;;1.64;66.66
77431;BME280;66498;48.564;19.272;2023-03-05T02:05:18;97052.84;;;1.67;66.61
77431;BME280;66498;48.564;19.272;2023-03-05T02:07:45;97062.03;;;1.69;66.67
77431;BME280;66498;48.564;19.272;2023-03-05T02:12:42;97059.78;;;1.66;67.29
77431;BME280;66498;48.564;19.272;2023-03-05T02:15:15;97059.53;;;1.61;67.44
77431;BME280;66498;48.564;19.272;2023-03-05T02:17:43;97056.13;;;1.60;67.32
77431;BME280;66498;48.564;19.272;2023-03-05T02:20:17;97048.72;;;1.57;67.32
77431;BME280;66498;48.564;19.272;2023-03-05T02:22:46;97054.06;;;1.56;67.87
77431;BME280;66498;48.564;19.272;2023-03-05T02:25:13;97058.53;;;1.62;67.78
77431;BME280;66498;48.564;19.272;2023-03-05T02:27:42;97053.38;;;1.62;67.80
77431;BME280;66498;48.564;19.272;2023-03-05T02:30:10;97057.63;;;1.55;68.31
77431;BME280;66498;48.564;19.272;2023-03-05T02:32:37;97054.59;;;1.51;68.18
77431;BME280;66498;48.564;19.272;2023-03-05T02:35:07;97057.56;;;1.63;67.81
77431;BME280;66498;48.564;19.272;2023-03-05T02:37:33;97057.38;;;1.64;68.25
77431;BME280;66498;48.564;19.272;2023-03-05T02:40:00;97056.50;;;1.57;68.48
77431;BME280;66498;48.564;19.272;2023-03-05T02:42:28;97060.41;;;1.53;68.87
77431;BME280;66498;48.564;19.272;2023-03-05T02:44:58;97057.00;;;1.53;68.94
77431;BME280;66498;48.564;19.272;2023-03-05T02:47:31;97056.13;;;1.60;69.16
77431;BME280;66498;48.564;19.272;2023-03-05T02:49:59;97050.97;;;1.60;68.81
77431;BME280;66498;48.564;19.272;2023-03-05T02:52:24;97055.59;;;1.50;69.25
77431;BME280;66498;48.564;19.272;2023-03-05T02:54:51;97054.88;;;1.56;69.34
77431;BME280;66498;48.564;19.272;2023-03-05T02:57:17;97054.78;;;1.50;70.10
77431;BME280;66498;48.564;19.272;2023-03-05T02:59:44;97052.19;;;1.50;69.80
77431;BME280;66498;48.564;19.272;2023-03-05T03:02:12;97049.88;;;1.55;69.87
77431;BME280;66498;48.564;19.272;2023-03-05T03:04:37;97049.63;;;1.50;69.89
77431;BME280;66498;48.564;19.272;2023-03-05T03:07:04;97055.41;;;1.52;70.20
77431;BME280;66498;48.564;19.272;2023-03-05T03:09:29;97047.03;;;1.50;70.41
77431;BME280;66498;48.564;19.272;2023-03-05T03:11:55;97041.03;;;1.49;70.46
77431;BME280;66498;48.564;19.272;2023-03-05T03:14:21;97042.13;;;1.55;69.93
77431;BME280;66498;48.564;19.272;2023-03-05T03:16:46;97044.69;;;1.55;70.41
77431;BME280;66498;48.564;19.272;2023-03-05T03:19:13;97042.56;;;1.44;70.69
77431;BME280;66498;48.564;19.272;2023-03-05T03:21:39;97039.50;;;1.40;70.80
77431;BME280;66498;48.564;19.272;2023-03-05T03:24:06;97038.63;;;1.48;70.75
77431;BME280;66498;48.564;19.272;2023-03-05T03:26:31;97030.69;;;1.49;70.92
77431;BME280;66498;48.564;19.272;2023-03-05T03:28:57;97030.56;;;1.42;71.16
77431;BME280;66498;48.564;19.272;2023-03-05T03:31:24;97023.31;;;1.46;71.15
77431;BME280;66498;48.564;19.272;2023-03-05T03:33:51;97024.25;;;1.45;71.31
77431;BME280;66498;48.564;19.272;2023-03-05T03:36:16;97026.84;;;1.45;71.35
77431;BME280;66498;48.564;19.272;2023-03-05T03:38:42;97025.97;;;1.53;71.31
77431;BME280;66498;48.564;19.272;2023-03-05T03:41:09;97029.78;;;1.42;71.97
77431;BME280;66498;48.564;19.272;2023-03-05T03:43:36;97023.19;;;1.39;72.28
77431;BME280;66498;48.564;19.272;2023-03-05T03:46:21;97023.00;;;1.41;72.00
77431;BME280;66498;48.564;19.272;2023-03-05T03:48:50;97021.22;;;1.41;72.01
77431;BME280;66498;48.564;19.272;2023-03-05T03:51:16;97017.84;;;1.41;72.17
77431;BME280;66498;48.564;19.272;2023-03-05T03:53:43;97022.81;;;1.42;72.29
77431;BME280;66498;48.564;19.272;2023-03-05T03:56:08;97019.63;;;1.40;72.39
77431;BME280;66498;48.564;19.272;2023-03-05T03:58:36;97008.13;;;1.43;72.43
77431;BME280;66498;48.564;19.272;2023-03-05T04:01:03;97005.69;;;1.41;72.54
77431;BME280;66498;48.564;19.272;2023-03-05T04:03:29;97010.25;;;1.39;72.48
77431;BME280;66498;48.564;19.272;2023-03-05T04:05:54;97007.38;;;1.34;72.44
77431;BME280;66498;48.564;19.272;2023-03-05T04:08:20;97013.19;;;1.36;72.42
77431;BME280;66498;48.564;19.272;2023-03-05T04:10:46;97010.72;;;1.43;71.92
77431;BME280;66498;48.564;19.272;2023-03-05T04:13:14;97012.84;;;1.39;72.18
77431;BME280;66498;48.564;19.272;2023-03-05T04:15:39;97017.66;;;1.42;71.97
77431;BME280;66498;48.564;19.272;2023-03-05T04:18:05;97009.09;;;1.42;71.68
77431;BME280;66498;48.564;19.272;2023-03-05T04:20:31;97017.19;;;1.39;72.12
77431;BME280;66498;48.564;19.272;2023-03-05T04:22:56;97015.25;;;1.41;71.59
77431;BME280;66498;48.564;19.272;2023-03-05T04:25:25;97013.91;;;1.30;72.15
77431;BME280;66498;48.564;19.272;2023-03-05T04:27:52;97005.44;;;1.36;72.24
77431;BME280;66498;48.564;19.272;2023-03-05T04:30:19;97013.56;;;1.33;71.77
77431;BME280;66498;48.564;19.272;2023-03-05T04:32:45;97012.03;;;1.39;71.73
77431;BME280;66498;48.564;19.272;2023-03-05T04:35:11;97006.16;;;1.45;71.50
77431;BME280;66498;48.564;19.272;2023-03-05T04:37:37;97007.38;;;1.34;71.87
77431;BME280;66498;48.564;19.272;2023-03-05T04:40:04;97002.66;;;1.38;71.54
77431;BME280;66498;48.564;19.272;2023-03-05T04:42:30;97002.31;;;1.41;71.16
77431;BME280;66498;48.564;19.272;2023-03-05T04:44:56;97011.91;;;1.32;71.42
77431;BME280;66498;48.564;19.272;2023-03-05T04:47:22;97009.88;;;1.42;70.54
77431;BME280;66498;48.564;19.272;2023-03-05T04:49:47;97011.56;;;1.35;71.41
77431;BME280;66498;48.564;19.272;2023-03-05T04:52:18;97015.50;;;1.31;71.43
77431;BME280;66498;48.564;19.272;2023-03-05T04:54:43;97022.38;;;1.39;71.14
77431;BME280;66498;48.564;19.272;2023-03-05T04:57:09;97023.19;;;1.39;71.57
77431;BME280;66498;48.564;19.272;2023-03-05T04:59:37;97013.00;;;1.38;71.03
77431;BME280;66498;48.564;19.272;2023-03-05T05:02:04;97018.53;;;1.35;71.31
77431;BME280;66498;48.564;19.272;2023-03-05T05:04:32;97024.94;;;1.39;70.80
77431;BME280;66498;48.564;19.272;2023-03-05T05:07:02;97016.13;;;1.33;70.62
77431;BME280;66498;48.564;19.272;2023-03-05T05:09:33;97014.25;;;1.27;70.66
77431;BME280;66498;48.564;19.272;2023-03-05T05:11:59;97008.38;;;1.33;70.42
77431;BME280;66498;48.564;19.272;2023-03-05T05:14:25;97014.16;;;1.35;70.08
77431;BME280;66498;48.564;19.272;2023-03-05T05:16:51;97011.13;;;1.32;70.67
77431;BME280;66498;48.564;19.272;2023-03-05T05:19:18;97010.06;;;1.26;70.52
77431;BME280;66498;48.564;19.272;2023-03-05T05:21:44;97013.91;;;1.30;70.48
77431;BME280;66498;48.564;19.272;2023-03-05T05:24:11;97015.84;;;1.28;70.15
77431;BME280;66498;48.564;19.272;2023-03-05T05:26:37;97015.34;;;1.33;69.84
77431;BME280;66498;48.564;19.272;2023-03-05T05:29:03;97020.16;;;1.36;69.71
77431;BME280;66498;48.564;19.272;2023-03-05T05:31:28;97013.25;;;1.28;69.38
77431;BME280;66498;48.564;19.272;2023-03-05T05:33:54;97013.91;;;1.30;69.37
77431;BME280;66498;48.564;19.272;2023-03-05T05:36:23;97025.03;;;1.31;69.07
77431;BME280;66498;48.564;19.272;2023-03-05T05:38:48;97026.19;;;1.28;69.74
77431;BME280;66498;48.564;19.272;2023-03-05T05:41:16;97029.41;;;1.30;69.31
77431;BME280;66498;48.564;19.272;2023-03-05T05:43:42;97031.81;;;1.32;69.38
77431;BME280;66498;48.564;19.272;2023-03-05T05:46:15;97030.03;;;1.32;68.85
77431;BME280;66498;48.564;19.272;2023-03-05T05:48:43;97037.78;;;1.32;68.55
77431;BME280;66498;48.564;19.272;2023-03-05T05:51:12;97031.66;;;1.33;68.97
77431;BME280;66498;48.564;19.272;2023-03-05T05:53:42;97042.16;;;1.32;68.20
77431;BME280;66498;48.564;19.272;2023-03-05T05:56:09;97041.34;;;1.31;68.38
77431;BME280;66498;48.564;19.272;2023-03-05T05:58:38;97032.78;;;1.31;68.24
77431;BME280;66498;48.564;19.272;2023-03-05T06:01:31;97039.13;;;1.28;68.64
77431;BME280;66498;48.564;19.272;2023-03-05T06:03:58;97035.38;;;1.31;68.62
77431;BME280;66498;48.564;19.272;2023-03-05T06:06:25;97039.41;;;1.33;68.27
77431;BME280;66498;48.564;19.272;2023-03-05T06:08:51;97040.22;;;1.34;68.53
77431;BME280;66498;48.564;19.272;2023-03-05T06:11:18;97038.97;;;1.45;68.11
77431;BME280;66498;48.564;19.272;2023-03-05T06:13:44;97042.56;;;1.44;68.77
77431;BME280;66498;48.564;19.272;2023-03-05T06:16:13;97042.47;;;1.52;68.05
77431;BME280;66498;48.564;19.272;2023-03-05T06:18:39;97043.63;;;1.49;68.25
77431;BME280;66498;48.564;19.272;2023-03-05T06:21:07;97037.81;;;1.47;68.81
77431;BME280;66498;48.564;19.272;2023-03-05T06:23:33;97039.50;;;1.40;68.89
77431;BME280;66498;48.564;19.272;2023-03-05T06:26:01;97042.09;;;1.40;68.66
77431;BME280;66498;48.564;19.272;2023-03-05T06:28:28;97042.81;;;1.49;68.43
77431;BME280;66498;48.564;19.272;2023-03-05T06:31:12;97047.53;;;1.45;68.25
77431;BME280;66498;48.564;19.272;2023-03-05T06:33:40;97039.97;;;1.44;68.10
77431;BME280;66498;48.564;19.272;2023-03-05T06:36:07;97029.19;;;1.55;68.02
77431;BME280;66498;48.564;19.272;2023-03-05T06:38:40;97027.59;;;1.54;68.06
77431;BME280;66498;48.564;19.272;2023-03-05T06:41:11;97025.09;;;1.60;66.94
77431;BME280;66498;48.564;19.272;2023-03-05T06:43:42;97033.09;;;1.51;67.52
77431;BME280;66498;48.564;19.272;2023-03-05T06:46:12;97028.59;;;1.68;67.34
77431;BME280;66498;48.564;19.272;2023-03-05T06:48:39;97024.81;;;1.55;66.81
77431;BME280;66498;48.564;19.272;2023-03-05T06:51:22;97028.47;;;1.61;66.49
77431;BME280;66498;48.564;19.272;2023-03-05T06:53:49;97031.63;;;1.71;64.75
77431;BME280;66498;48.564;19.272;2023-03-05T06:56:18;97032.97;;;1.67;65.52
77431;BME280;66498;48.564;19.272;2023-03-05T06:58:47;97026.78;;;1.68;65.49
77431;BME280;66498;48.564;19.272;2023-03-05T07:01:18;97032.75;;;1.69;65.23
77431;BME280;66498;48.564;19.272;2023-03-05T07:03:49;97031.53;;;1.64;63.75
77431;BME280;66498;48.564;19.272;2023-03-05T07:06:17;97039.19;;;1.58;64.35
77431;BME280;66498;48.564;19.272;2023-03-05T07:08:47;97041.56;;;1.59;63.85
77431;BME280;66498;48.564;19.272;2023-03-05T07:11:17;97029.63;;;1.58;63.10
77431;BME280;66498;48.564;19.272;2023-03-05T07:13:44;97034.66;;;1.60;63.19
77431;BME280;66498;48.564;19.272;2023-03-05T07:16:15;97034.66;;;1.60;63.04
77431;BME280;66498;48.564;19.272;2023-03-05T07:18:42;97033.22;;;1.57;63.67
77431;BME280;66498;48.564;19.272;2023-03-05T07:21:08;97037.84;;;1.62;63.16
77431;BME280;66498;48.564;19.272;2023-03-05T07:23:35;97035.44;;;1.60;61.96
77431;BME280;66498;48.564;19.272;2023-03-05T07:26:02;97045.78;;;1.60;62.41
77431;BME280;66498;48.564;19.272;2023-03-05T07:28:28;97046.94;;;1.58;62.05
77431;BME280;66498;48.564;19.272;2023-03-05T07:31:01;97043.72;;;1.56;61.79
77431;BME280;66498;48.564;19.272;2023-03-05T07:33:27;97045.94;;;1.59;62.00
77431;BME280;66498;48.564;19.272;2023-03-05T07:35:53;97035.69;;;1.65;61.42
77431;BME280;66498;48.564;19.272;2023-03-05T07:38:19;97041.53;;;1.68;61.69
77431;BME280;66498;48.564;19.272;2023-03-05T07:40:45;97040.63;;;1.75;60.79
77431;BME280;66498;48.564;19.272;2023-03-05T07:43:11;97042.75;;;1.86;62.10
77431;BME280;66498;48.564;19.272;2023-03-05T07:45:40;97036.78;;;1.86;61.40
77431;BME280;66498;48.564;19.272;2023-03-05T07:48:07;97036.63;;;1.87;62.75
77431;BME280;66498;48.564;19.272;2023-03-05T07:50:33;97037.22;;;1.89;61.86
77431;BME280;66498;48.564;19.272;2023-03-05T07:52:59;97033.50;;;1.92;61.30
77431;BME280;66498;48.564;19.272;2023-03-05T07:55:25;97040.09;;;1.95;60.74
77431;BME280;66498;48.564;19.272;2023-03-05T07:57:52;97035.53;;;1.97;61.36
77431;BME280;66498;48.564;19.272;2023-03-05T08:00:22;97023.41;;;1.97;59.58
77431;BME280;66498;48.564;19.272;2023-03-05T08:02:51;97026.09;;;2.04;60.70
77431;BME280;66498;48.564;19.272;2023-03-05T08:05:17;97012.69;;;2.15;60.80
77431;BME280;66498;48.564;19.272;2023-03-05T08:07:43;97014.25;;;2.31;60.30
77431;BME280;66498;48.564;19.272;2023-03-05T08:10:09;97014.44;;;2.29;59.77
77431;BME280;66498;48.564;19.272;2023-03-05T08:12:35;97008.19;;;2.39;59.37
77431;BME280;66498;48.564;19.272;2023-03-05T08:15:02;97002.94;;;2.32;58.73
77431;BME280;66498;48.564;19.272;2023-03-05T08:17:29;97004.16;;;2.36;58.38
77431;BME280;66498;48.564;19.272;2023-03-05T08:19:55;97009.63;;;2.26;59.36
77431;BME280;66498;48.564;19.272;2023-03-05T08:22:24;96996.22;;;2.23;59.48
77431;BME280;66498;48.564;19.272;2023-03-05T08:24:51;96992.41;;;2.19;59.15
77431;BME280;66498;48.564;19.272;2023-03-05T08:27:18;96989.41;;;2.36;59.71
77431;BME280;66498;48.564;19.272;2023-03-05T08:29:45;96991.78;;;2.31;58.36
77431;BME280;66498;48.564;19.272;2023-03-05T08:32:11;96993.44;;;2.39;58.31
77431;BME280;66498;48.564;19.272;2023-03-05T08:34:39;96988.84;;;2.56;58.87
77431;BME280;66498;48.564;19.272;2023-03-05T08:37:04;96989.75;;;2.48;58.30
77431;BME280;66498;48.564;19.272;2023-03-05T08:39:34;96996.53;;;2.49;58.34
77431;BME280;66498;48.564;19.272;2023-03-05T08:42:08;96994.69;;;2.43;57.62
77431;BME280;66498;48.564;19.272;2023-03-05T08:44:34;96999.19;;;2.34;57.79
77431;BME280;66498;48.564;19.272;2023-03-05T08:47:00;96996.75;;;2.33;58.13
77431;BME280;66498;48.564;19.272;2023-03-05T08:49:25;96990.66;;;2.41;58.73
77431;BME280;66498;48.564;19.272;2023-03-05T08:51:51;96986.66;;;2.38;57.83
77431;BME280;66498;48.564;19.272;2023-03-05T08:54:21;96990.34;;;2.29;58.39
77431;BME280;66498;48.564;19.272;2023-03-05T08:56:50;96989.53;;;2.28;57.25
77431;BME280;66498;48.564;19.272;2023-03-05T08:59:16;96994.34;;;2.31;57.80
77431;BME280;66498;48.564;19.272;2023-03-05T09:01:50;96991.97;;;2.51;57.77
77431;BME280;66498;48.564;19.272;2023-03-05T09:04:33;96977.59;;;2.70;56.97
77431;BME280;66498;48.564;19.272;2023-03-05T09:07:01;96968.97;;;2.84;56.03
77431;BME280;66498;48.564;19.272;2023-03-05T09:09:36;96977.59;;;2.92;55.25
77431;BME280;66498;48.564;19.272;2023-03-05T09:12:57;96964.97;;;2.82;55.66
77431;BME280;66498;48.564;19.272;2023-03-05T09:15:29;96974.56;;;2.88;55.68
77431;BME280;66498;48.564;19.272;2023-03-05T09:17:58;96969.72;;;3.00;56.45
77431;BME280;66498;48.564;19.272;2023-03-05T09:20:27;96960.94;;;3.01;55.37
77431;BME280;66498;48.564;19.272;2023-03-05T09:22:57;96970.69;;;2.99;55.43
77431;BME280;66498;48.564;19.272;2023-03-05T09:25:28;96980.31;;;3.05;55.66
77431;BME280;66498;48.564;19.272;2023-03-05T09:28:10;96974.16;;;3.06;54.96
77431;BME280;66498;48.564;19.272;2023-03-05T09:31:04;96973.59;;;2.89;55.42
77431;BME280;66498;48.564;19.272;2023-03-05T09:33:34;96964.53;;;3.00;55.00
77431;BME280;66498;48.564;19.272;2023-03-05T09:36:03;96968.56;;;3.09;55.32
77431;BME280;66498;48.564;19.272;2023-03-05T09:38:39;96967.53;;;3.03;55.54
77431;BME280;66498;48.564;19.272;2023-03-05T09:47:31;96958.75;;;3.04;55.55
77431;BME280;66498;48.564;19.272;2023-03-05T09:50:29;96965.84;;;3.17;55.86
77431;BME280;66498;48.564;19.272;2023-03-05T09:55:58;96965.53;;;3.05;54.35
77431;BME280;66498;48.564;19.272;2023-03-05T09:58:54;96961.56;;;3.31;54.57
77431;BME280;66498;48.564;19.272;2023-03-05T10:01:29;96960.00;;;3.37;54.83
77431;BME280;66498;48.564;19.272;2023-03-05T10:04:44;96960.59;;;3.39;53.95
77431;BME280;66498;48.564;19.272;2023-03-05T10:07:33;96952.88;;;3.45;53.38
77431;BME280;66498;48.564;19.272;2023-03-05T10:10:16;96949.53;;;3.51;52.97
77431;BME280;66498;48.564;19.272;2023-03-05T10:12:55;96949.22;;;3.33;52.68
77431;BME280;66498;48.564;19.272;2023-03-05T10:15:50;96948.13;;;3.21;53.87
77431;BME280;66498;48.564;19.272;2023-03-05T10:24:46;96952.81;;;2.82;54.40
77431;BME280;66498;48.564;19.272;2023-03-05T10:27:42;96953.41;;;2.84;54.77
77431;BME280;66498;48.564;19.272;2023-03-05T10:42:33;96947.69;;;2.89;54.55
77431;BME280;66498;48.564;19.272;2023-03-05T10:45:14;96947.31;;;2.92;55.13
77431;BME280;66498;48.564;19.272;2023-03-05T10:47:48;96951.81;;;2.83;55.31
77431;BME280;66498;48.564;19.272;2023-03-05T10:50:22;96941.97;;;2.72;55.64
77431;BME280;66498;48.564;19.272;2023-03-05T10:55:47;96945.94;;;2.75;56.46
77431;BME280;66498;48.564;19.272;2023-03-05T10:58:16;96944.28;;;2.67;57.80
77431;BME280;66498;48.564;19.272;2023-03-05T11:03:58;96937.94;;;2.70;56.75
77431;BME280;66498;48.564;19.272;2023-03-05T11:06:57;96944.56;;;2.72;57.62
77431;BME280;66498;48.564;19.272;2023-03-05T11:09:28;96940.16;;;2.73;57.88
77431;BME280;66498;48.564;19.272;2023-03-05T11:12:10;96935.09;;;2.65;57.50
77431;BME280;66498;48.564;19.272;2023-03-05T11:17:42;96923.06;;;2.57;57.73
77431;BME280;66498;48.564;19.272;2023-03-05T11:20:42;96916.81;;;2.51;58.62
77431;BME280;66498;48.564;19.272;2023-03-05T11:23:24;96916.72;;;2.59;58.31
77431;BME280;66498;48.564;19.272;2023-03-05T11:26:04;96911.34;;;2.61;58.20
77431;BME280;66498;48.564;19.272;2023-03-05T11:29:21;96914.53;;;2.84;58.18
77431;BME280;66498;48.564;19.272;2023-03-05T11:32:23;96919.16;;;2.68;57.48
77431;BME280;66498;48.564;19.272;2023-03-05T11:34:56;96913.81;;;2.69;58.86
77431;BME280;66498;48.564;19.272;2023-03-05T11:37:30;96917.06;;;2.78;57.99
77431;BME280;66498;48.564;19.272;2023-03-05T11:40:23;96907.91;;;2.75;58.09
77431;BME280;66498;48.564;19.272;2023-03-05T11:42:59;96880.19;;;2.54;58.41
77431;BME280;66498;48.564;19.272;2023-03-05T11:45:28;96901.84;;;2.47;60.29
77431;BME280;66498;48.564;19.272;2023-03-05T11:48:24;96906.78;;;2.63;59.70
77431;BME280;66498;48.564;19.272;2023-03-05T11:50:56;96910.31;;;2.55;60.51
77431;BME280;66498;48.564;19.272;2023-03-05T11:53:35;96909.25;;;2.50;60.84
77431;BME280;66498;48.564;19.272;2023-03-05T11:56:32;96911.03;;;2.49;61.46
77431;BME280;66498;48.564;19.272;2023-03-05T11:59:17;96898.69;;;2.30;61.79
77431;BME280;66498;48.564;19.272;2023-03-05T12:01:50;96900.13;;;2.11;62.76
77431;BME280;66498;48.564;19.272;2023-03-05T12:04:24;96897.66;;;2.24;63.47
77431;BME280;66498;48.564;19.272;2023-03-05T12:07:08;96894.00;;;2.40;64.40
77431;BME280;66498;48.564;19.272;2023-03-05T12:09:52;96892.22;;;2.41;62.93
77431;BME280;66498;48.564;19.272;2023-03-05T12:23:14;96881.72;;;2.27;63.22
77431;BME280;66498;48.564;19.272;2023-03-05T12:31:36;96871.94;;;2.23;63.64
77431;BME280;66498;48.564;19.272;2023-03-05T12:40:22;96869.03;;;2.11;62.72
77431;BME280;66498;48.564;19.272;2023-03-05T12:43:05;96867.19;;;2.05;63.03
77431;BME280;66498;48.564;19.272;2023-03-05T12:45:47;96873.53;;;2.02;63.86
77431;BME280;66498;48.564;19.272;2023-03-05T12:50:48;96874.81;;;2.13;64.26
77431;BME280;66498;48.564;19.272;2023-03-05T12:53:18;96867.59;;;1.87;64.14
77431;BME280;66498;48.564;19.272;2023-03-05T12:58:39;96866.25;;;1.76;64.70
77431;BME280;66498;48.564;19.272;2023-03-05T13:03:59;96861.72;;;1.78;64.43
77431;BME280;66498;48.564;19.272;2023-03-05T13:06:33;96852.78;;;1.81;65.54
77431;BME280;66498;48.564;19.272;2023-03-05T13:11:33;96866.34;;;1.83;63.32
77431;BME280;66498;48.564;19.272;2023-03-05T13:14:02;96862.28;;;1.95;62.90
77431;BME280;66498;48.564;19.272;2023-03-05T13:16:37;96858.03;;;1.87;63.09
77431;BME280;66498;48.564;19.272;2023-03-05T13:19:14;96853.72;;;1.95;63.83
77431;BME280;66498;48.564;19.272;2023-03-05T13:21:41;96851.16;;;1.95;63.08
77431;BME280;66498;48.564;19.272;2023-03-05T13:24:18;96857.19;;;2.02;63.93
77431;BME280;66498;48.564;19.272;2023-03-05T13:26:44;96855.97;;;2.19;63.29
77431;BME280;66498;48.564;19.272;2023-03-05T13:29:23;96859.91;;;2.15;62.44
77431;BME280;66498;48.564;19.272;2023-03-05T13:32:33;96844.03;;;2.03;59.60
77431;BME280;66498;48.564;19.272;2023-03-05T13:34:59;96843.38;;;2.16;58.46
77431;BME280;66498;48.564;19.272;2023-03-05T13:37:33;96850.47;;;2.29;59.16
77431;BME280;66498;48.564;19.272;2023-03-05T13:42:40;96829.69;;;2.44;57.93
77431;BME280;66498;48.564;19.272;2023-03-05T13:45:29;96816.03;;;2.28;56.59
77431;BME280;66498;48.564;19.272;2023-03-05T13:47:57;96824.31;;;2.24;56.98
77431;BME280;66498;48.564;19.272;2023-03-05T13:50:34;96817.13;;;2.19;54.86
77431;BME280;66498;48.564;19.272;2023-03-05T13:53:27;96820.94;;;2.02;55.32
77431;BME280;66498;48.564;19.272;2023-03-05T13:56:00;96810.81;;;1.85;55.85
77431;BME280;66498;48.564;19.272;2023-03-05T14:01:43;96820.16;;;2.01;55.25
77431;BME280;66498;48.564;19.272;2023-03-05T14:07:05;96822.03;;;1.93;55.27
77431;BME280;66498;48.564;19.272;2023-03-05T14:14:38;96804.72;;;1.93;52.45
77431;BME280;66498;48.564;19.272;2023-03-05T14:17:40;96803.41;;;1.97;53.08
77431;BME280;66498;48.564;19.272;2023-03-05T14:20:27;96788.38;;;1.71;52.53
77431;BME280;66498;48.564;19.272;2023-03-05T14:23:01;96796.22;;;1.78;53.27
77431;BME280;66498;48.564;19.272;2023-03-05T14:26:10;96795.78;;;1.74;54.68
77431;BME280;66498;48.564;19.272;2023-03-05T14:28:36;96797.16;;;1.92;53.87
77431;BME280;66498;48.564;19.272;2023-03-05T14:31:17;96800.09;;;1.88;52.73
77431;BME280;66498;48.564;19.272;2023-03-05T14:33:59;96785.94;;;1.84;52.06
77431;BME280;66498;48.564;19.272;2023-03-05T14:36:27;96789.25;;;1.78;53.93
77431;BME280;66498;48.564;19.272;2023-03-05T14:38:55;96787.59;;;1.71;55.39
77431;BME280;66498;48.564;19.272;2023-03-05T14:41:36;96803.63;;;1.81;54.59
77431;BME280;66498;48.564;19.272;2023-03-05T14:44:23;96792.63;;;1.79;52.46
77431;BME280;66498;48.564;19.272;2023-03-05T14:46:53;96795.06;;;1.80;53.97
77431;BME280;66498;48.564;19.272;2023-03-05T14:49:22;96792.03;;;1.77;53.75
77431;BME280;66498;48.564;19.272;2023-03-05T14:51:57;96799.34;;;1.73;55.12